createdAt,value
2018-04-17T00:00:14.333Z,10.10
2018-04-17T00:02:41.800Z,10.00
2018-04-17T00:05:10.038Z,10.00
2018-04-17T00:07:37.561Z,10.00
2018-04-17T00:10:05.050Z,9.90
2018-04-17T00:12:32.521Z,9.90
2018-04-17T00:15:00.412Z,9.80
2018-04-17T00:17:27.885Z,9.80
2018-04-17T00:19:56.152Z,9.80
2018-04-17T00:22:23.667Z,9.80
2018-04-17T00:24:52.522Z,9.80
2018-04-17T00:27:24.307Z,9.80
2018-04-17T00:29:59.792Z,9.80
2018-04-17T00:32:29.128Z,9.80
2018-04-17T00:35:01.980Z,9.80
2018-04-17T00:37:37.973Z,9.70
2018-04-17T00:40:07.709Z,9.60
2018-04-17T00:42:41.445Z,9.70
2018-04-17T00:45:09.922Z,9.70
2018-04-17T00:47:37.474Z,9.70
2018-04-17T00:50:05.061Z,9.60
2018-04-17T00:52:32.558Z,9.60
2018-04-17T00:55:00.065Z,9.60
2018-04-17T00:57:28.153Z,9.60
2018-04-17T00:59:55.628Z,9.50
2018-04-17T01:02:24.125Z,9.50
2018-04-17T01:07:25.693Z,9.50
2018-04-17T01:09:53.637Z,9.50
2018-04-17T01:15:32.503Z,9.50
2018-04-17T01:18:00.919Z,9.40
2018-04-17T01:20:28.417Z,9.40
2018-04-17T01:22:56.336Z,9.30
2018-04-17T01:25:24.218Z,9.30
2018-04-17T01:27:51.713Z,9.30
2018-04-17T01:30:19.171Z,9.30
2018-04-17T01:32:47.205Z,9.30
2018-04-17T01:35:21.665Z,9.20
2018-04-17T01:40:52.969Z,9.10
2018-04-17T01:46:46.551Z,9.10
2018-04-17T01:49:20.868Z,9.00
2018-04-17T02:05:40.989Z,8.80
2018-04-17T02:08:09.317Z,8.70
2018-04-17T02:10:40.478Z,8.70
2018-04-17T02:13:09.403Z,8.70
2018-04-17T02:15:37.824Z,8.60
2018-04-17T02:18:05.648Z,8.60
2018-04-17T03:08:27.898Z,8.10
2018-04-17T03:10:56.174Z,8.10
2018-04-17T03:13:23.596Z,8.10
2018-04-17T03:15:51.024Z,8.10
2018-04-17T03:35:14.016Z,7.90
2018-04-17T03:40:40.562Z,7.90
2018-04-17T03:43:08.006Z,7.90
2018-04-17T03:45:35.423Z,7.90
2018-04-17T03:48:02.864Z,7.90
2018-04-17T03:50:30.315Z,7.90
2018-04-17T03:52:58.207Z,7.90
2018-04-17T03:55:25.675Z,7.90
2018-04-17T03:57:53.131Z,7.90
2018-04-17T04:00:20.583Z,7.90
2018-04-17T04:02:48.011Z,7.90
2018-04-17T04:05:15.481Z,7.90
2018-04-17T04:07:42.905Z,7.90
2018-04-17T04:10:10.331Z,7.90
2018-04-17T04:12:37.855Z,7.90
2018-04-17T04:15:05.312Z,7.90
2018-04-17T04:17:44.779Z,7.80
2018-04-17T04:20:25.098Z,7.80
2018-04-17T04:23:04.860Z,7.80
2018-04-17T04:25:44.218Z,7.80
2018-04-17T04:28:12.044Z,7.80
2018-04-17T04:30:39.519Z,7.80
2018-04-17T04:33:06.978Z,7.80
2018-04-17T04:35:35.080Z,7.90
2018-04-17T04:38:02.945Z,7.90
2018-04-17T04:40:30.796Z,7.90
2018-04-17T04:42:58.260Z,7.90
2018-04-17T04:45:25.727Z,7.90
2018-04-17T04:47:53.591Z,8.00
2018-04-17T04:50:21.049Z,8.00
2018-04-17T04:52:48.904Z,8.00
2018-04-17T04:55:16.360Z,8.00
2018-04-17T04:57:43.916Z,8.10
2018-04-17T05:00:11.342Z,8.10
2018-04-17T05:02:38.803Z,8.10
2018-04-17T05:05:06.255Z,8.10
2018-04-17T05:07:33.715Z,8.10
2018-04-17T05:10:01.177Z,8.20
2018-04-17T05:12:28.632Z,8.20
2018-04-17T05:14:56.092Z,8.20
2018-04-17T05:17:23.553Z,8.30
2018-04-17T05:19:51.008Z,8.40
2018-04-17T05:22:18.465Z,8.40
2018-04-17T05:24:45.931Z,8.50
2018-04-17T05:27:13.392Z,8.50
2018-04-17T05:29:40.861Z,8.60
2018-04-17T05:32:08.320Z,8.60
2018-04-17T05:34:35.788Z,8.70
2018-04-17T05:37:03.236Z,8.70
2018-04-17T05:39:30.697Z,8.80
2018-04-17T05:41:58.153Z,8.90
2018-04-17T05:44:25.691Z,9.00
2018-04-17T05:46:53.056Z,9.10
2018-04-17T05:49:20.528Z,9.20
2018-04-17T05:51:47.983Z,9.40
2018-04-17T05:54:15.456Z,9.50
2018-04-17T05:56:42.911Z,9.70
2018-04-17T05:59:10.372Z,9.90
2018-04-17T06:01:38.223Z,10.20
2018-04-17T06:04:05.692Z,10.20
2018-04-17T06:06:33.149Z,10.30
2018-04-17T06:09:00.624Z,10.40
2018-04-17T06:11:28.084Z,10.70
2018-04-17T06:13:55.554Z,11.10
2018-04-17T06:16:23.012Z,11.40
2018-04-17T06:18:50.495Z,11.60
2018-04-17T06:21:17.961Z,11.80
2018-04-17T06:23:45.412Z,12.00
2018-04-17T06:26:13.741Z,12.10
2018-04-17T06:28:49.042Z,12.40
2018-04-17T06:31:16.533Z,12.40
2018-04-17T06:36:38.690Z,12.80
2018-04-17T06:39:06.197Z,12.90
2018-04-17T06:41:33.671Z,13.00
2018-04-17T06:44:01.998Z,13.10
2018-04-17T06:46:29.485Z,13.30
2018-04-17T06:48:57.761Z,13.30
2018-04-17T06:51:26.189Z,13.40
2018-04-17T06:53:54.596Z,13.60
2018-04-17T06:56:22.634Z,13.60
2018-04-17T06:58:51.641Z,13.70
2018-04-17T07:01:20.141Z,13.90
2018-04-17T07:03:48.468Z,13.90
2018-04-17T07:06:15.934Z,13.90
2018-04-17T07:08:44.069Z,14.00
2018-04-17T07:11:13.725Z,14.00
2018-04-17T07:13:41.302Z,14.10
2018-04-17T07:16:08.782Z,14.20
2018-04-17T07:18:38.871Z,14.20
2018-04-17T07:21:06.806Z,14.40
2018-04-17T07:23:34.310Z,14.40
2018-04-17T07:26:01.809Z,14.40
2018-04-17T07:28:29.344Z,14.50
2018-04-17T07:30:57.211Z,14.60
2018-04-17T07:33:25.456Z,14.70
2018-04-17T07:35:54.171Z,14.80
2018-04-17T07:38:21.662Z,14.80
2018-04-17T07:40:50.904Z,14.90
2018-04-17T07:43:18.794Z,15.00
2018-04-17T07:45:46.294Z,15.00
2018-04-17T07:48:25.423Z,15.10
2018-04-17T07:50:52.902Z,15.10
2018-04-17T07:53:20.381Z,15.30
2018-04-17T07:55:47.903Z,15.30
2018-04-17T07:58:15.319Z,15.40
2018-04-17T08:00:42.884Z,15.30
2018-04-17T08:03:10.360Z,15.40
2018-04-17T08:05:37.828Z,15.50
2018-04-17T08:08:05.322Z,15.50
2018-04-17T08:10:32.808Z,15.60
2018-04-17T08:13:00.301Z,15.70
2018-04-17T08:15:27.793Z,15.70
2018-04-17T08:17:55.275Z,15.80
2018-04-17T08:20:22.758Z,15.90
2018-04-17T08:22:50.253Z,16.00
2018-04-17T08:25:17.739Z,16.00
2018-04-17T08:27:45.201Z,16.00
2018-04-17T08:30:12.671Z,16.10
2018-04-17T08:32:40.127Z,16.20
2018-04-17T08:35:07.612Z,16.20
2018-04-17T08:37:35.065Z,16.20
2018-04-17T08:40:02.540Z,16.20
2018-04-17T08:42:30.388Z,16.40
2018-04-17T08:44:57.860Z,16.50
2018-04-17T08:47:25.699Z,16.60
2018-04-17T08:49:53.172Z,16.60
2018-04-17T08:52:20.635Z,16.70
2018-04-17T08:54:48.106Z,16.80
2018-04-17T08:57:15.959Z,16.90
2018-04-17T08:59:43.973Z,16.90
2018-04-17T09:02:13.167Z,17.00
2018-04-17T09:04:40.639Z,17.00
2018-04-17T09:07:08.103Z,17.00
2018-04-17T09:09:35.583Z,17.00
2018-04-17T09:12:03.036Z,17.10
2018-04-17T09:14:30.500Z,17.10
2018-04-17T09:16:57.956Z,17.20
2018-04-17T09:19:25.427Z,17.30
2018-04-17T09:21:52.879Z,17.30
2018-04-17T09:24:20.352Z,17.30
2018-04-17T09:26:50.616Z,17.30
2018-04-17T09:32:10.565Z,17.60
2018-04-17T09:34:38.031Z,17.70
2018-04-17T09:37:05.499Z,17.60
2018-04-17T09:39:33.000Z,17.70
2018-04-17T09:42:01.617Z,17.80
2018-04-17T09:44:29.087Z,17.90
2018-04-17T09:46:56.545Z,17.80
2018-04-17T09:49:24.056Z,17.60
2018-04-17T09:51:51.524Z,17.70
2018-04-17T09:54:18.996Z,17.70
2018-04-17T09:56:46.458Z,17.80
2018-04-17T09:59:13.944Z,17.90
2018-04-17T10:01:41.785Z,18.00
2018-04-17T10:04:09.231Z,18.00
2018-04-17T10:06:36.662Z,18.00
2018-04-17T10:09:04.129Z,18.10
2018-04-17T10:11:31.539Z,18.10
2018-04-17T10:13:58.984Z,18.10
2018-04-17T10:16:26.443Z,18.20
2018-04-17T10:18:53.867Z,18.40
2018-04-17T10:21:21.304Z,18.50
2018-04-17T10:23:48.740Z,18.50
2018-04-17T10:26:16.175Z,18.70
2018-04-17T10:28:43.615Z,18.60
2018-04-17T10:31:11.067Z,18.60
2018-04-17T10:33:38.887Z,18.70
2018-04-17T10:36:06.332Z,18.70
2018-04-17T10:38:33.763Z,18.80
2018-04-17T10:41:01.206Z,19.00
2018-04-17T10:43:28.632Z,19.00
2018-04-17T10:45:56.072Z,18.90
2018-04-17T10:48:24.480Z,19.00
2018-04-17T10:50:51.930Z,19.10
2018-04-17T10:53:19.366Z,19.20
2018-04-17T10:55:46.807Z,19.20
2018-04-17T10:58:14.267Z,19.20
2018-04-17T11:00:42.358Z,19.20
2018-04-17T11:03:09.799Z,19.20
2018-04-17T11:05:37.228Z,19.30
2018-04-17T11:08:04.666Z,19.40
2018-04-17T11:10:32.094Z,19.40
2018-04-17T11:12:59.527Z,19.40
2018-04-17T11:15:27.007Z,19.50
2018-04-17T11:17:54.453Z,19.50
2018-04-17T11:20:21.894Z,19.60
2018-04-17T11:22:49.311Z,19.70
2018-04-17T11:25:17.147Z,19.60
2018-04-17T11:27:44.590Z,19.60
2018-04-17T11:30:12.033Z,19.50
2018-04-17T11:32:39.468Z,19.60
2018-04-17T11:35:06.920Z,19.60
2018-04-17T11:37:34.355Z,19.70
2018-04-17T11:40:01.774Z,19.80
2018-04-17T11:42:29.219Z,19.90
2018-04-17T11:44:56.647Z,20.00
2018-04-17T11:47:24.143Z,20.00
2018-04-17T11:49:51.597Z,20.30
2018-04-17T11:52:19.028Z,20.30
2018-04-17T11:54:46.462Z,20.40
2018-04-17T11:57:13.896Z,20.40
2018-04-17T11:59:41.332Z,20.40
2018-04-17T12:02:08.763Z,20.30
2018-04-17T12:04:36.187Z,20.40
2018-04-17T12:07:03.610Z,20.50
2018-04-17T12:09:31.043Z,20.40
2018-04-17T12:11:58.476Z,20.40
2018-04-17T12:14:25.921Z,20.40
2018-04-17T12:16:53.360Z,20.60
2018-04-17T12:19:20.807Z,20.70
2018-04-17T12:21:48.238Z,20.80
2018-04-17T12:24:15.667Z,20.70
2018-04-17T12:26:43.130Z,20.70
2018-04-17T12:29:10.558Z,20.80
2018-04-17T12:31:37.990Z,20.70
2018-04-17T12:34:05.811Z,20.70
2018-04-17T12:36:33.251Z,20.70
2018-04-17T12:39:00.713Z,20.70
2018-04-17T12:41:28.140Z,20.80
2018-04-17T12:43:56.970Z,20.70
2018-04-17T12:46:25.010Z,20.70
2018-04-17T12:48:52.453Z,20.70
2018-04-17T12:51:19.900Z,20.70
2018-04-17T12:53:48.380Z,21.00
2018-04-17T12:56:16.215Z,21.00
2018-04-17T12:58:43.647Z,21.00
2018-04-17T13:01:11.857Z,21.00
2018-04-17T13:03:39.279Z,21.00
2018-04-17T13:06:06.738Z,21.00
2018-04-17T13:08:34.159Z,21.10
2018-04-17T13:11:01.624Z,21.10
2018-04-17T13:13:29.050Z,21.20
2018-04-17T13:15:56.478Z,21.20
2018-04-17T13:18:23.903Z,21.20
2018-04-17T13:20:51.333Z,21.10
2018-04-17T13:23:19.160Z,21.10
2018-04-17T13:25:46.607Z,21.10
2018-04-17T13:28:14.030Z,21.20
2018-04-17T13:30:41.470Z,21.20
2018-04-17T13:33:08.887Z,21.30
2018-04-17T13:35:36.319Z,21.30
2018-04-17T13:38:03.747Z,21.30
2018-04-17T13:40:31.183Z,21.40
2018-04-17T13:42:59.888Z,21.60
2018-04-17T13:45:27.326Z,21.60
2018-04-17T13:47:55.146Z,21.60
2018-04-17T13:50:22.575Z,21.60
2018-04-17T13:52:50.000Z,21.50
2018-04-17T13:55:17.430Z,21.50
2018-04-17T13:57:44.870Z,21.50
2018-04-17T14:00:12.308Z,21.40
2018-04-17T14:02:39.749Z,21.50
2018-04-17T14:05:07.188Z,21.50
2018-04-17T14:07:35.007Z,21.60
2018-04-17T14:10:02.431Z,21.60
2018-04-17T14:12:29.863Z,21.70
2018-04-17T14:14:57.687Z,21.80
2018-04-17T14:17:25.155Z,21.80
2018-04-17T14:19:52.547Z,21.90
2018-04-17T14:22:20.380Z,22.00
2018-04-17T14:24:47.806Z,22.00
2018-04-17T14:27:15.239Z,22.00
2018-04-17T14:29:42.671Z,21.90
2018-04-17T14:32:10.082Z,22.00
2018-04-17T14:34:37.525Z,22.00
2018-04-17T14:37:04.952Z,22.00
2018-04-17T14:39:32.775Z,21.90
2018-04-17T14:42:00.212Z,21.90
2018-04-17T14:44:27.634Z,21.90
2018-04-17T14:46:55.062Z,21.90
2018-04-17T14:49:22.492Z,21.80
2018-04-17T14:51:49.929Z,21.90
2018-04-17T14:54:17.353Z,22.00
2018-04-17T14:56:45.176Z,22.10
2018-04-17T14:59:12.596Z,22.10
2018-04-17T15:01:40.027Z,22.10
2018-04-17T15:04:07.440Z,22.00
2018-04-17T15:06:34.884Z,22.10
2018-04-17T15:09:02.310Z,22.20
2018-04-17T15:11:30.141Z,22.30
2018-04-17T15:13:57.551Z,22.30
2018-04-17T15:16:24.985Z,22.30
2018-04-17T15:18:52.415Z,22.40
2018-04-17T15:21:19.845Z,22.50
2018-04-17T15:23:47.265Z,22.30
2018-04-17T15:26:14.731Z,22.30
2018-04-17T15:28:42.177Z,22.20
2018-04-17T15:31:09.599Z,22.20
2018-04-17T15:33:37.022Z,22.20
2018-04-17T15:36:04.457Z,22.10
2018-04-17T15:38:31.875Z,22.00
2018-04-17T15:40:59.313Z,22.00
2018-04-17T15:43:26.730Z,22.10
2018-04-17T15:45:54.158Z,22.10
2018-04-17T15:48:21.966Z,22.40
2018-04-17T15:50:49.469Z,22.40
2018-04-17T15:53:16.826Z,22.40
2018-04-17T15:55:44.272Z,22.50
2018-04-17T15:58:11.691Z,22.50
2018-04-17T16:00:39.125Z,22.50
2018-04-17T16:03:06.547Z,22.50
2018-04-17T16:05:34.465Z,22.60
2018-04-17T16:08:01.891Z,22.60
2018-04-17T16:10:29.318Z,22.70
2018-04-17T16:12:56.802Z,22.50
2018-04-17T16:15:24.175Z,22.60
2018-04-17T16:17:56.464Z,22.60
2018-04-17T16:20:36.274Z,22.60
2018-04-17T16:23:06.616Z,22.60
2018-04-17T16:25:34.163Z,22.70
2018-04-17T16:28:02.355Z,22.60
2018-04-17T16:30:29.832Z,22.50
2018-04-17T16:32:57.298Z,22.60
2018-04-17T16:35:25.876Z,22.70
2018-04-17T16:37:54.341Z,22.60
2018-04-17T16:40:24.507Z,22.50
2018-04-17T16:42:54.532Z,22.60
2018-04-17T16:45:22.388Z,22.50
2018-04-17T16:47:49.872Z,22.50
2018-04-17T16:50:17.549Z,22.40
2018-04-17T16:52:45.417Z,22.30
2018-04-17T16:55:12.881Z,22.20
2018-04-17T16:57:40.339Z,22.00
2018-04-17T17:00:07.799Z,21.90
2018-04-17T17:02:35.255Z,21.90
2018-04-17T17:05:02.706Z,21.90
2018-04-17T17:07:30.164Z,21.80
2018-04-17T17:09:59.611Z,21.80
2018-04-17T17:12:35.531Z,21.70
2018-04-17T17:23:46.700Z,21.30
2018-04-17T17:26:14.160Z,21.30
2018-04-17T17:28:43.752Z,21.20
2018-04-17T17:31:11.224Z,21.10
2018-04-17T17:33:38.683Z,21.00
2018-04-17T17:36:06.996Z,20.90
2018-04-17T17:38:42.122Z,20.90
2018-04-17T17:43:55.967Z,20.80
2018-04-17T17:46:23.827Z,20.60
2018-04-17T17:48:51.671Z,20.50
2018-04-17T17:51:19.631Z,20.50
2018-04-17T17:53:47.051Z,20.40
2018-04-17T17:56:14.524Z,20.20
2018-04-17T17:58:41.935Z,20.10
2018-04-17T18:01:09.763Z,19.70
2018-04-17T18:03:37.220Z,19.70
2018-04-17T18:06:04.629Z,19.60
2018-04-17T18:08:32.068Z,19.40
2018-04-17T18:11:00.308Z,19.30
2018-04-17T18:13:27.738Z,19.10
2018-04-17T18:15:56.119Z,18.90
2018-04-17T18:18:23.527Z,18.70
2018-04-17T18:20:51.845Z,18.60
2018-04-17T18:23:19.829Z,18.40
2018-04-17T18:25:47.247Z,18.20
2018-04-17T18:28:14.697Z,18.10
2018-04-17T18:30:42.520Z,17.90
2018-04-17T18:33:09.952Z,17.90
2018-04-17T18:35:37.371Z,17.80
2018-04-17T18:38:05.214Z,17.50
2018-04-17T18:40:32.667Z,17.50
2018-04-17T18:43:01.683Z,17.30
2018-04-17T18:45:29.558Z,17.00
2018-04-17T18:47:57.048Z,17.10
2018-04-17T18:50:24.481Z,16.90
2018-04-17T18:52:51.929Z,16.80
2018-04-17T18:55:19.856Z,16.50
2018-04-17T18:57:47.337Z,16.50
2018-04-17T19:00:14.883Z,16.40
2018-04-17T19:02:42.369Z,16.20
2018-04-17T19:05:10.216Z,16.00
2018-04-17T19:07:37.671Z,16.00
2018-04-17T19:10:05.116Z,15.90
2018-04-17T19:12:32.786Z,15.80
2018-04-17T19:15:00.274Z,15.70
2018-04-17T19:17:30.148Z,15.50
2018-04-17T19:19:58.577Z,15.50
2018-04-17T19:22:27.857Z,15.40
2018-04-17T19:24:55.368Z,15.40
2018-04-17T19:27:23.655Z,15.30
2018-04-17T19:29:53.749Z,15.20
2018-04-17T19:32:24.079Z,15.20
2018-04-17T19:35:16.299Z,15.10
2018-04-17T19:37:47.791Z,15.20
2018-04-17T19:40:15.301Z,15.10
2018-04-17T19:42:43.799Z,15.00
2018-04-17T19:45:12.560Z,15.00
2018-04-17T19:47:43.927Z,14.90
2018-04-17T19:50:12.629Z,14.90
2018-04-17T19:52:45.936Z,14.80
2018-04-17T19:55:14.877Z,14.70
2018-04-17T19:57:50.900Z,14.60
2018-04-17T20:00:20.121Z,14.50
2018-04-17T20:02:48.201Z,14.40
2018-04-17T20:05:18.232Z,14.40
2018-04-17T20:07:48.005Z,14.30
2018-04-17T20:10:20.194Z,14.30
2018-04-17T20:12:51.604Z,14.20
2018-04-17T20:17:53.708Z,14.10
2018-04-17T20:20:21.961Z,14.00
2018-04-17T20:22:49.872Z,13.90
2018-04-17T20:25:19.219Z,13.60
2018-04-17T20:27:50.677Z,13.60
2018-04-17T20:30:18.485Z,13.60
2018-04-17T20:32:48.125Z,13.50
2018-04-17T20:35:16.870Z,13.50
2018-04-17T20:37:48.079Z,13.40
2018-04-17T20:40:18.226Z,13.40
2018-04-17T20:42:46.905Z,13.40
2018-04-17T20:45:17.293Z,13.40
2018-04-17T20:47:45.124Z,13.40
2018-04-17T20:50:22.330Z,13.20
2018-04-17T20:52:49.945Z,13.20
2018-04-17T20:55:18.493Z,13.10
2018-04-17T20:57:46.393Z,13.00
2018-04-17T21:00:16.488Z,13.00
2018-04-17T21:02:56.684Z,13.00
2018-04-17T21:05:27.284Z,13.00
2018-04-17T21:10:40.897Z,12.90
2018-04-17T21:13:24.220Z,12.80
2018-04-17T21:15:51.642Z,12.80
2018-04-17T21:20:53.307Z,12.70
2018-04-17T21:23:20.747Z,12.70
2018-04-17T21:25:48.169Z,12.60
2018-04-17T21:28:15.640Z,12.60
2018-04-17T21:30:43.102Z,12.60
2018-04-17T21:33:12.099Z,12.60
2018-04-17T21:35:40.275Z,12.60
2018-04-17T21:38:08.124Z,12.60
2018-04-17T21:40:35.641Z,12.40
2018-04-17T21:43:03.968Z,12.40
2018-04-17T21:45:33.725Z,12.30
2018-04-17T21:48:02.894Z,12.30
2018-04-17T21:50:31.850Z,12.20
2018-04-17T21:52:59.364Z,12.20
2018-04-17T21:55:29.865Z,12.20
2018-04-17T21:57:57.332Z,12.10
2018-04-17T22:00:25.956Z,12.00
2018-04-17T22:02:55.977Z,11.90
2018-04-17T22:05:24.653Z,11.90
2018-04-17T22:07:52.316Z,11.90
2018-04-17T22:10:21.199Z,11.80
2018-04-17T22:12:49.903Z,11.80
2018-04-17T22:15:17.363Z,11.70
2018-04-17T22:17:45.294Z,11.70
2018-04-17T22:20:14.206Z,11.70
2018-04-17T22:22:42.101Z,11.50
2018-04-17T22:25:13.477Z,11.50
2018-04-17T22:27:46.009Z,11.50
2018-04-17T22:30:13.559Z,11.50
2018-04-17T22:32:42.287Z,11.50
2018-04-17T22:35:10.056Z,11.40
2018-04-17T22:37:37.617Z,11.40
2018-04-17T22:40:12.555Z,11.40
2018-04-17T22:42:45.219Z,11.30
2018-04-17T22:45:14.175Z,11.30
2018-04-17T22:47:42.632Z,11.30
2018-04-17T22:50:11.625Z,11.20
2018-04-17T22:52:44.125Z,11.20
2018-04-17T22:55:13.169Z,11.10
2018-04-17T22:57:50.803Z,11.10
2018-04-17T23:00:20.498Z,11.10
2018-04-17T23:02:47.963Z,11.10
2018-04-17T23:05:16.191Z,11.10
2018-04-17T23:07:44.708Z,11.00
2018-04-17T23:10:13.224Z,10.90
2018-04-17T23:12:43.684Z,10.90
2018-04-17T23:15:14.036Z,10.80
2018-04-17T23:17:45.912Z,10.80
2018-04-17T23:20:14.866Z,10.80
2018-04-17T23:25:20.119Z,10.80
2018-04-17T23:30:24.706Z,10.90
2018-04-17T23:32:55.288Z,10.80
2018-04-17T23:35:23.847Z,10.70
2018-04-17T23:40:25.169Z,10.70
2018-04-17T23:42:54.675Z,10.60
2018-04-17T23:45:22.088Z,10.60
2018-04-17T23:47:49.518Z,10.60
2018-04-17T23:50:16.943Z,10.60
2018-04-17T23:52:45.243Z,10.70
2018-04-17T23:55:12.679Z,10.70
2018-04-17T23:57:40.128Z,10.70
